Time;durP1;ratioP1;P1;durP2;ratioP2;P2;SDS_P1;SDS_P2;PMS_P1;PMS_P2;Temp;Humidity;BMP_temperature;BMP_pressure;BME280_temperature;BME280_humidity;BME280_pressure;Samples;Min_cycle;Max_cycle;Signal;HPM_P1;HPM_P2
2022/02/13 00:00:48;;;;;;;29.35;10.00;;;;;;;-1.71;89.02;101765.78;5046242;28;20074;-76
2022/02/13 00:03:13;;;;;;;22.67;9.68;;;;;;;-1.72;89.23;101771.72;5047844;28;20056;-77
2022/02/13 00:05:39;;;;;;;21.73;9.80;;;;;;;-1.78;89.37;101766.84;5046689;28;20979;-77
2022/02/13 00:08:05;;;;;;;24.40;9.23;;;;;;;-1.84;89.62;101760.28;5066854;28;20115;-77
2022/02/13 00:10:31;;;;;;;23.67;10.00;;;;;;;-1.89;89.65;101751.97;5052453;28;20033;-76
2022/02/13 00:12:57;;;;;;;25.27;10.85;;;;;;;-1.88;89.44;101746.00;5049832;28;20031;-77
2022/02/13 00:15:23;;;;;;;21.27;9.95;;;;;;;-1.90;89.57;101747.78;5046747;28;20037;-77
2022/02/13 00:17:48;;;;;;;27.45;10.55;;;;;;;-1.88;89.42;101750.28;5049530;28;20033;-77
2022/02/13 00:20:14;;;;;;;25.63;11.00;;;;;;;-1.91;89.71;101743.56;5072579;28;20024;-77
2022/02/13 00:22:39;;;;;;;23.42;9.88;;;;;;;-1.92;89.72;101739.38;5048127;28;20994;-77
2022/02/13 00:25:05;;;;;;;22.52;9.77;;;;;;;-1.83;89.85;101735.66;5065700;28;20040;-77
2022/02/13 00:27:31;;;;;;;24.33;10.40;;;;;;;-1.87;89.87;101736.66;5047277;28;20398;-77
2022/02/13 00:29:56;;;;;;;27.55;10.52;;;;;;;-1.78;89.93;101732.06;5048010;28;20035;-76
2022/02/13 00:32:23;;;;;;;23.77;10.35;;;;;;;-1.74;90.23;101731.97;5065305;28;20434;-77
2022/02/13 00:34:49;;;;;;;24.98;11.55;;;;;;;-1.74;89.71;101726.91;5063361;28;20375;-77
2022/02/13 00:37:15;;;;;;;24.15;9.73;;;;;;;-1.69;89.95;101730.13;5049964;28;20042;-76
2022/02/13 00:39:41;;;;;;;27.92;9.80;;;;;;;-1.63;89.48;101720.53;5063682;28;20102;-77
2022/02/13 00:42:08;;;;;;;27.65;10.23;;;;;;;-1.60;89.58;101727.22;5049137;28;20033;-76
2022/02/13 00:44:34;;;;;;;28.58;9.63;;;;;;;-1.67;89.72;101733.44;5066881;28;20154;-77
2022/02/13 00:47:00;;;;;;;35.45;9.95;;;;;;;-1.68;89.38;101722.41;5048983;28;20025;-77
2022/02/13 00:49:25;;;;;;;22.40;9.25;;;;;;;-1.74;89.45;101717.53;5051730;28;20452;-77
2022/02/13 00:51:51;;;;;;;23.75;9.88;;;;;;;-1.81;89.90;101716.09;5066548;28;20036;-77
2022/02/13 00:54:16;;;;;;;29.42;10.65;;;;;;;-1.86;90.05;101713.72;5063232;28;20106;-77
2022/02/13 00:56:42;;;;;;;33.70;10.77;;;;;;;-1.87;90.08;101713.78;5066832;28;20086;-77
2022/02/13 00:59:08;;;;;;;26.95;10.02;;;;;;;-1.83;90.24;101713.63;5066567;28;20116;-77
2022/02/13 01:01:34;;;;;;;23.77;9.48;;;;;;;-1.86;90.10;101707.81;5049871;28;20056;-77
2022/02/13 01:03:59;;;;;;;19.92;9.00;;;;;;;-1.92;90.35;101708.00;5031704;28;20033;-76
2022/02/13 01:06:27;;;;;;;19.23;9.15;;;;;;;-1.96;90.33;101709.81;5036290;28;20039;-77
2022/02/13 01:08:53;;;;;;;22.27;9.38;;;;;;;-1.98;90.50;101701.44;5065314;28;20043;-77
2022/02/13 01:11:18;;;;;;;26.60;10.18;;;;;;;-2.01;90.75;101704.09;5048749;28;20024;-77
2022/02/13 01:13:48;;;;;;;23.38;9.73;;;;;;;-2.03;90.94;101698.22;5047578;28;20438;-77
2022/02/13 01:16:16;;;;;;;26.95;9.82;;;;;;;-2.06;90.64;101700.88;5047432;28;20043;-76
2022/02/13 01:18:42;;;;;;;24.48;9.32;;;;;;;-2.10;90.72;101699.31;5048358;28;20090;-77
2022/02/13 01:21:08;;;;;;;23.33;10.63;;;;;;;-2.09;90.62;101701.81;5027941;28;20024;-76
2022/02/13 01:23:34;;;;;;;18.88;9.25;;;;;;;-1.99;90.19;101687.06;5065154;28;20048;-77
2022/02/13 01:25:59;;;;;;;30.95;10.27;;;;;;;-1.98;90.14;101692.09;5044867;28;20028;-76
2022/02/13 01:28:25;;;;;;;22.73;8.98;;;;;;;-2.03;90.16;101685.53;5047396;28;20494;-77
2022/02/13 01:30:52;;;;;;;25.35;9.32;;;;;;;-2.08;90.12;101684.84;5047540;28;20037;-77
2022/02/13 01:33:17;;;;;;;22.85;9.20;;;;;;;-2.15;90.37;101681.66;5066168;28;20098;-77
2022/02/13 01:35:43;;;;;;;25.65;10.27;;;;;;;-2.20;90.27;101686.09;5062723;28;20494;-77
2022/02/13 01:38:08;;;;;;;23.10;10.57;;;;;;;-2.22;90.71;101691.22;5045054;28;20036;-77
2022/02/13 01:40:33;;;;;;;24.73;9.15;;;;;;;-2.24;90.69;101694.69;5046876;28;20048;-77
2022/02/13 01:42:59;;;;;;;21.48;8.85;;;;;;;-2.28;90.68;101703.28;5032949;28;20368;-76
2022/02/13 01:45:24;;;;;;;22.35;10.18;;;;;;;-2.32;90.91;101694.94;5046681;28;20055;-77
2022/02/13 01:47:50;;;;;;;24.92;8.77;;;;;;;-2.36;90.87;101695.94;5044500;28;20495;-77
2022/02/13 01:50:15;;;;;;;25.17;9.32;;;;;;;-2.42;90.98;101689.34;5032558;28;20037;-77
2022/02/13 01:52:42;;;;;;;23.92;9.82;;;;;;;-2.45;90.90;101684.38;5047965;28;20036;-76
2022/02/13 01:55:10;;;;;;;27.55;8.70;;;;;;;-2.47;90.76;101681.03;5045439;28;20035;-77
2022/02/13 01:57:36;;;;;;;35.45;9.82;;;;;;;-2.51;90.69;101683.75;5047803;28;20434;-77
2022/02/13 02:00:05;;;;;;;24.17;10.25;;;;;;;-2.53;90.82;101682.97;5065535;28;20189;-77
2022/02/13 02:02:37;;;;;;;22.50;8.82;;;;;;;-2.57;90.77;101689.84;5050299;28;20044;-77
2022/02/13 02:05:03;;;;;;;20.52;9.15;;;;;;;-2.60;90.72;101695.00;5062549;28;20438;-77
2022/02/13 02:07:28;;;;;;;24.08;9.50;;;;;;;-2.63;90.72;101690.06;5064269;28;20028;-76
2022/02/13 02:09:55;;;;;;;20.55;9.20;;;;;;;-2.62;90.98;101691.69;5049857;28;20077;-77
2022/02/13 02:12:20;;;;;;;23.75;10.13;;;;;;;-2.65;90.62;101687.56;5050734;28;20426;-76
2022/02/13 02:14:46;;;;;;;22.58;9.68;;;;;;;-2.70;90.44;101674.16;5047797;28;20552;-76
2022/02/13 02:17:12;;;;;;;28.13;9.75;;;;;;;-2.73;90.62;101674.28;5065309;28;20406;-76
2022/02/13 02:19:38;;;;;;;20.95;9.52;;;;;;;-2.80;90.88;101666.03;5046843;28;20027;-76
2022/02/13 02:22:08;;;;;;;25.17;9.82;;;;;;;-2.81;91.01;101666.88;5065776;28;20090;-77
2022/02/13 02:24:34;;;;;;;25.00;9.38;;;;;;;-2.85;90.96;101665.31;5064512;28;20388;-76
2022/02/13 02:27:00;;;;;;;23.05;9.80;;;;;;;-2.86;91.27;101666.22;5029944;28;20029;-77
2022/02/13 02:29:26;;;;;;;27.38;10.40;;;;;;;-2.86;91.20;101666.22;5049535;28;20039;-77
2022/02/13 02:31:52;;;;;;;22.60;10.82;;;;;;;-2.91;91.22;101657.91;5068005;28;20532;-77
2022/02/13 02:34:17;;;;;;;23.85;10.18;;;;;;;-2.95;91.32;101658.88;5064944;28;20033;-77
2022/02/13 02:36:43;;;;;;;22.02;10.30;;;;;;;-3.00;91.41;101651.41;5052986;28;20041;-76
2022/02/13 02:39:08;;;;;;;21.23;10.18;;;;;;;-2.92;91.35;101640.19;5064522;28;20453;-77
2022/02/13 02:41:34;;;;;;;23.83;9.35;;;;;;;-2.63;91.17;101640.09;5059931;28;20033;-77
2022/02/13 02:44:00;;;;;;;22.63;9.88;;;;;;;-2.79;91.19;101628.75;5051328;28;20044;-77
2022/02/13 02:46:26;;;;;;;24.20;9.48;;;;;;;-2.89;91.43;101627.41;5045131;28;20044;-77
2022/02/13 02:48:51;;;;;;;22.13;10.00;;;;;;;-2.83;91.61;101622.94;5047527;28;20036;-77
2022/02/13 02:51:17;;;;;;;26.42;10.90;;;;;;;-2.72;92.19;101625.16;5031473;28;20411;-77
2022/02/13 02:53:43;;;;;;;26.92;9.85;;;;;;;-2.78;91.86;101622.81;5064546;28;20032;-77
2022/02/13 02:56:09;;;;;;;23.85;9.55;;;;;;;-2.66;91.82;101611.41;5050911;28;20536;-77
2022/02/13 02:58:35;;;;;;;27.40;10.43;;;;;;;-2.76;91.75;101609.19;5034536;28;20040;-77
2022/02/13 03:01:01;;;;;;;25.58;10.57;;;;;;;-2.76;91.55;101613.44;5047237;28;20028;-77
2022/02/13 03:03:27;;;;;;;18.58;10.30;;;;;;;-2.68;91.69;101588.59;5047347;28;20036;-76
2022/02/13 03:05:52;;;;;;;27.08;10.63;;;;;;;-2.69;91.25;101589.50;5050116;28;20165;-77
2022/02/13 03:08:19;;;;;;;25.90;10.05;;;;;;;-2.75;91.69;101575.31;5049172;28;20043;-77
2022/02/13 03:10:46;;;;;;;24.48;9.00;;;;;;;-2.78;91.59;101572.84;5067900;28;20406;-77
2022/02/13 03:13:14;;;;;;;23.23;10.50;;;;;;;-2.79;91.80;101572.91;5068487;28;20040;-77
2022/02/13 03:15:40;;;;;;;21.70;9.82;;;;;;;-2.64;91.58;101576.63;5058215;28;20032;-77
2022/02/13 03:18:06;;;;;;;24.50;9.40;;;;;;;-2.76;91.86;101572.81;5068266;28;20036;-77
2022/02/13 03:20:32;;;;;;;19.95;10.20;;;;;;;-2.78;91.82;101569.50;5068969;28;20017;-77
2022/02/13 03:22:57;;;;;;;23.48;9.55;;;;;;;-2.70;91.47;101570.06;5047647;28;20059;-76
2022/02/13 03:25:23;;;;;;;22.10;10.18;;;;;;;-2.75;91.46;101562.59;5056193;28;20569;-78
2022/02/13 03:27:48;;;;;;;21.90;10.00;;;;;;;-2.72;91.47;101555.75;5050118;28;20040;-77
2022/02/13 03:30:13;;;;;;;27.27;12.27;;;;;;;-2.75;91.62;101556.69;5053806;28;20032;-76
2022/02/13 03:32:39;;;;;;;24.15;10.60;;;;;;;-2.73;91.49;101549.88;5043174;28;20569;-77
2022/02/13 03:35:05;;;;;;;20.05;9.88;;;;;;;-2.81;91.67;101555.19;5068022;28;20041;-77
2022/02/13 03:37:30;;;;;;;22.38;9.18;;;;;;;-2.88;91.77;101555.44;5053176;28;20119;-77
2022/02/13 03:39:56;;;;;;;23.48;10.77;;;;;;;-2.91;92.06;101553.00;5057559;28;20475;-77
2022/02/13 03:42:21;;;;;;;17.92;9.68;;;;;;;-2.97;92.26;101554.03;5050212;28;20482;-77
2022/02/13 03:44:48;;;;;;;27.05;11.32;;;;;;;-2.86;92.00;101554.53;5048167;28;20581;-77
2022/02/13 03:47:13;;;;;;;27.08;10.32;;;;;;;-2.81;91.41;101545.03;5048895;28;20115;-77
2022/02/13 03:49:39;;;;;;;24.33;10.85;;;;;;;-2.59;90.71;101540.03;5048732;28;20142;-76
2022/02/13 03:52:05;;;;;;;27.02;9.93;;;;;;;-2.60;90.22;101535.00;5047143;28;20040;-77
2022/02/13 03:54:31;;;;;;;25.85;11.18;;;;;;;-2.54;89.95;101522.13;5049260;28;20115;-76
2022/02/13 03:56:56;;;;;;;22.98;10.32;;;;;;;-2.48;89.14;101526.16;5043229;28;20556;-77
2022/02/13 03:59:21;;;;;;;21.88;9.77;;;;;;;-2.52;89.18;101537.28;5066469;28;20032;-77
2022/02/13 04:01:47;;;;;;;25.80;10.00;;;;;;;-2.63;89.35;101530.06;5047016;28;20429;-77
2022/02/13 04:04:12;;;;;;;24.92;9.70;;;;;;;-2.67;89.77;101541.22;5068170;28;20427;-76
2022/02/13 04:06:38;;;;;;;23.50;9.85;;;;;;;-2.78;89.91;101533.94;5047984;28;20039;-77
2022/02/13 04:09:03;;;;;;;22.73;10.27;;;;;;;-2.83;90.31;101526.47;5031679;28;20600;-77
2022/02/13 04:11:29;;;;;;;25.00;9.93;;;;;;;-2.87;90.38;101532.53;5047694;28;20028;-77
2022/02/13 04:13:54;;;;;;;25.50;9.63;;;;;;;-2.82;90.62;101523.06;5046744;28;20028;-77
2022/02/13 04:16:20;;;;;;;22.85;9.50;;;;;;;-2.65;90.26;101519.13;5065263;28;20039;-76
2022/02/13 04:18:45;;;;;;;30.33;9.77;;;;;;;-2.69;90.10;101520.09;5066234;28;20027;-76
2022/02/13 04:21:11;;;;;;;22.65;10.07;;;;;;;-2.70;89.91;101510.84;5049609;28;20482;-77
2022/02/13 04:23:37;;;;;;;26.60;9.75;;;;;;;-2.68;90.05;101509.06;5066295;28;20478;-77
2022/02/13 04:26:02;;;;;;;21.20;10.57;;;;;;;-2.66;90.12;101504.75;5031286;28;20115;-77
2022/02/13 04:28:28;;;;;;;19.80;9.13;;;;;;;-2.65;89.87;101506.44;5048871;28;20482;-77
2022/02/13 04:30:54;;;;;;;24.02;8.40;;;;;;;-2.79;90.18;101502.66;5046541;28;20036;-77
2022/02/13 04:33:21;;;;;;;32.42;10.27;;;;;;;-2.79;90.32;101500.13;5065835;28;20070;-76
2022/02/13 04:35:47;;;;;;;26.45;9.60;;;;;;;-2.79;90.07;101501.81;5063694;28;20040;-77
2022/02/13 04:38:13;;;;;;;24.33;9.45;;;;;;;-2.65;90.16;101496.28;5050043;28;20267;-76
2022/02/13 04:40:39;;;;;;;23.27;9.23;;;;;;;-2.43;88.96;101493.78;5064702;28;20035;-76
2022/02/13 04:43:05;;;;;;;19.30;8.70;;;;;;;-2.62;88.83;101494.47;5049123;28;20436;-77
2022/02/13 04:45:30;;;;;;;24.27;8.57;;;;;;;-2.62;88.86;101499.53;5063960;28;20418;-76
2022/02/13 04:47:56;;;;;;;18.67;8.63;;;;;;;-2.66;88.96;101494.59;5036159;28;20073;-76
2022/02/13 04:50:21;;;;;;;19.13;8.80;;;;;;;-2.73;89.18;101488.94;5027482;28;20502;-77
2022/02/13 04:52:54;;;;;;;19.05;7.95;;;;;;;-2.64;89.40;101491.13;5054278;28;20020;-77
2022/02/13 04:55:21;;;;;;;23.35;8.55;;;;;;;-2.61;89.04;101485.13;5047928;28;20452;-77
2022/02/13 04:57:48;;;;;;;18.05;8.45;;;;;;;-2.68;89.21;101479.41;5049366;28;20039;-77
2022/02/13 05:00:15;;;;;;;24.45;9.32;;;;;;;-2.67;89.16;101482.81;5066343;28;20032;-76
2022/02/13 05:02:41;;;;;;;19.25;8.35;;;;;;;-2.60;89.00;101474.06;5045778;28;20529;-76
2022/02/13 05:05:08;;;;;;;20.15;8.02;;;;;;;-2.60;88.88;101458.81;5048027;28;20542;-76
2022/02/13 05:07:33;;;;;;;20.95;8.35;;;;;;;-2.52;88.60;101463.63;5066222;28;20024;-76
2022/02/13 05:09:59;;;;;;;19.23;8.40;;;;;;;-2.51;88.75;101457.69;5064779;28;20402;-76
2022/02/13 05:12:24;;;;;;;19.63;8.40;;;;;;;-2.54;88.69;101456.09;5048665;28;20047;-76
2022/02/13 05:14:50;;;;;;;19.63;9.15;;;;;;;-2.69;88.94;101456.63;5062344;28;20021;-76
2022/02/13 05:17:16;;;;;;;23.58;8.48;;;;;;;-2.52;88.83;101448.38;5047569;28;20072;-76
2022/02/13 05:19:41;;;;;;;20.10;8.82;;;;;;;-2.61;88.79;101447.03;5036706;28;20033;-77
2022/02/13 05:22:07;;;;;;;18.90;8.23;;;;;;;-2.52;88.65;101443.31;5064211;28;20033;-76
2022/02/13 05:24:36;;;;;;;23.42;9.13;;;;;;;-2.59;88.86;101447.81;5066541;28;20725;-77
2022/02/13 05:27:04;;;;;;;19.65;9.25;;;;;;;-2.57;88.61;101451.94;5046726;28;20036;-77
2022/02/13 05:29:30;;;;;;;19.85;8.20;;;;;;;-2.52;87.89;101443.31;5065518;28;20106;-76
2022/02/13 05:31:56;;;;;;;21.80;7.88;;;;;;;-2.62;88.15;101441.13;5065871;28;20033;-76
2022/02/13 05:34:21;;;;;;;19.98;8.05;;;;;;;-2.51;87.78;101443.25;5063775;28;20316;-76
2022/02/13 05:36:47;;;;;;;19.45;8.13;;;;;;;-2.45;87.33;101437.97;5066002;28;20502;-76
2022/02/13 05:39:12;;;;;;;19.35;8.15;;;;;;;-2.44;87.05;101434.53;5045106;28;20090;-77
2022/02/13 05:41:38;;;;;;;17.98;6.72;;;;;;;-2.50;87.01;101436.50;5047348;28;20479;-76
2022/02/13 05:44:04;;;;;;;17.35;7.65;;;;;;;-2.53;86.91;101426.44;5049160;28;20074;-76
2022/02/13 05:46:29;;;;;;;21.05;7.95;;;;;;;-2.43;86.70;101426.03;5065885;28;20116;-76
2022/02/13 05:48:56;;;;;;;17.63;6.85;;;;;;;-2.36;86.35;101422.38;5065960;28;20400;-76
2022/02/13 05:51:23;;;;;;;17.98;7.95;;;;;;;-2.32;86.46;101419.72;5029449;28;20486;-76
2022/02/13 05:53:50;;;;;;;22.30;7.57;;;;;;;-2.37;86.26;101422.44;5067353;28;20440;-76
2022/02/13 05:56:15;;;;;;;18.02;7.47;;;;;;;-2.40;86.52;101413.22;5064400;28;20111;-76
2022/02/13 05:58:42;;;;;;;18.05;7.47;;;;;;;-2.44;86.44;101418.47;5069830;28;20111;-76
2022/02/13 06:01:08;;;;;;;19.25;7.03;;;;;;;-2.47;86.38;101426.19;5048176;28;20041;-76
2022/02/13 06:03:34;;;;;;;17.52;7.65;;;;;;;-2.44;86.72;101421.84;5065024;28;20036;-77
2022/02/13 06:06:01;;;;;;;17.50;7.32;;;;;;;-2.40;86.53;101428.44;5072498;28;20135;-76
2022/02/13 06:08:28;;;;;;;22.95;7.15;;;;;;;-2.43;86.63;101415.03;5065155;28;20075;-76
2022/02/13 06:10:54;;;;;;;18.02;7.95;;;;;;;-2.48;86.69;101420.31;5046323;28;20033;-76
2022/02/13 06:13:19;;;;;;;16.35;7.90;;;;;;;-2.60;87.18;101424.13;5047560;28;20039;-76
2022/02/13 06:15:45;;;;;;;17.27;7.57;;;;;;;-2.60;87.33;101420.72;5065322;28;20036;-76
2022/02/13 06:18:10;;;;;;;19.10;7.63;;;;;;;-2.60;87.72;101418.19;5064088;28;20334;-76
2022/02/13 06:20:36;;;;;;;16.38;8.00;;;;;;;-2.61;87.72;101419.09;5064031;28;20029;-76
2022/02/13 06:23:02;;;;;;;18.60;7.90;;;;;;;-2.50;87.74;101413.63;5047793;28;20059;-76
2022/02/13 06:25:27;;;;;;;17.88;7.40;;;;;;;-2.45;86.98;101412.56;5069619;28;20123;-76
2022/02/13 06:27:53;;;;;;;16.55;7.57;;;;;;;-2.62;87.32;101418.28;5047159;28;20112;-76
2022/02/13 06:30:18;;;;;;;19.80;7.65;;;;;;;-2.68;87.60;101412.56;5033139;28;20025;-76
2022/02/13 06:32:44;;;;;;;15.88;6.78;;;;;;;-2.55;86.98;101413.78;5049489;28;20117;-76
2022/02/13 06:35:09;;;;;;;19.35;7.78;;;;;;;-2.44;86.41;101411.69;5064680;28;20032;-76
2022/02/13 06:37:37;;;;;;;18.85;7.28;;;;;;;-2.45;86.25;101410.03;5048027;28;20043;-76
2022/02/13 06:40:02;;;;;;;21.92;7.85;;;;;;;-2.45;86.16;101410.03;5067068;28;20524;-76
2022/02/13 06:42:28;;;;;;;17.92;7.97;;;;;;;-2.48;86.44;101407.59;5051649;28;20040;-76
2022/02/13 06:44:53;;;;;;;23.20;8.48;;;;;;;-2.47;86.28;101403.34;5033980;28;20040;-76
2022/02/13 06:47:19;;;;;;;21.15;9.63;;;;;;;-2.43;86.30;101397.25;5055094;28;20021;-76
2022/02/13 06:49:44;;;;;;;26.13;10.77;;;;;;;-2.38;86.50;101397.91;5049775;28;20449;-76
2022/02/13 06:52:10;;;;;;;28.55;12.05;;;;;;;-2.41;86.75;101403.09;5064161;28;20115;-76
2022/02/13 06:54:35;;;;;;;22.63;10.95;;;;;;;-2.33;86.88;101403.66;5069629;28;20082;-76
2022/02/13 06:57:01;;;;;;;32.88;11.88;;;;;;;-2.30;86.55;101400.16;5051092;28;20024;-76
2022/02/13 06:59:26;;;;;;;23.15;10.02;;;;;;;-2.25;86.16;101394.03;5054457;28;20028;-76
2022/02/13 07:01:52;;;;;;;25.08;10.55;;;;;;;-2.26;86.31;101386.44;5051168;28;20414;-77
2022/02/13 07:04:17;;;;;;;22.55;9.77;;;;;;;-2.30;86.09;101393.34;5050514;28;20176;-76
2022/02/13 07:06:43;;;;;;;26.58;10.40;;;;;;;-2.36;86.83;101371.56;5052710;28;20036;-76
2022/02/13 07:09:08;;;;;;;24.08;11.82;;;;;;;-2.38;86.78;101370.78;5051269;28;20036;-76
2022/02/13 07:11:34;;;;;;;24.88;12.23;;;;;;;-2.14;86.62;101364.84;5044047;28;20028;-76
2022/02/13 07:14:00;;;;;;;25.02;11.32;;;;;;;-2.24;86.33;101361.81;5051118;28;20406;-76
2022/02/13 07:16:26;;;;;;;22.73;12.07;;;;;;;-2.19;86.44;101355.66;5068760;28;20393;-77
2022/02/13 07:18:52;;;;;;;25.15;12.38;;;;;;;-2.18;86.51;101352.25;5068411;28;20028;-76
2022/02/13 07:21:17;;;;;;;21.75;11.82;;;;;;;-2.06;86.28;101357.72;5050346;28;20029;-76
2022/02/13 07:23:43;;;;;;;23.67;12.45;;;;;;;-2.01;86.04;101353.28;5051445;28;20517;-76
2022/02/13 07:26:10;;;;;;;22.17;10.27;;;;;;;-1.91;86.20;101349.47;5047013;28;20035;-76
2022/02/13 07:31:20;;;;;;;27.83;9.23;;;;;;;-1.72;85.11;101338.56;5065411;28;20029;-76
2022/02/13 07:33:46;;;;;;;19.70;8.30;;;;;;;-1.74;84.89;101335.25;5046820;28;20093;-76
2022/02/13 07:36:11;;;;;;;18.23;8.10;;;;;;;-1.67;85.22;101327.31;5066353;28;20402;-76
2022/02/13 07:38:37;;;;;;;19.83;8.77;;;;;;;-1.69;85.11;101334.19;5047308;28;21363;-76
2022/02/13 07:41:02;;;;;;;16.75;7.65;;;;;;;-1.53;84.77;101331.81;5047550;28;20032;-76
2022/02/13 07:43:28;;;;;;;18.15;8.10;;;;;;;-1.49;84.19;101322.31;5067281;28;20124;-77
2022/02/13 07:45:53;;;;;;;15.77;7.60;;;;;;;-1.41;84.21;101331.28;5067280;28;20048;-76
2022/02/13 07:48:19;;;;;;;15.48;7.93;;;;;;;-1.37;84.16;101334.53;5047093;28;20094;-76
2022/02/13 07:50:44;;;;;;;23.92;9.68;;;;;;;-1.24;83.28;101328.03;5065235;28;20486;-77
2022/02/13 07:53:10;;;;;;;17.15;8.15;;;;;;;-1.20;83.32;101326.16;5047799;28;20035;-76
2022/02/13 07:55:35;;;;;;;23.27;8.57;;;;;;;-1.01;83.03;101321.09;5046663;28;20032;-77
2022/02/13 07:58:01;;;;;;;19.00;8.00;;;;;;;-1.00;82.94;101320.19;5044873;28;20478;-77
2022/02/13 08:00:26;;;;;;;15.95;7.28;;;;;;;-0.94;82.18;101317.38;5048077;28;20095;-77
2022/02/13 08:02:52;;;;;;;17.05;8.02;;;;;;;-0.86;81.97;101317.03;5049516;28;20031;-77
2022/02/13 08:05:18;;;;;;;19.65;8.05;;;;;;;-0.85;82.33;101311.03;5048400;28;20497;-77
2022/02/13 08:07:46;;;;;;;22.63;8.68;;;;;;;-0.80;81.66;101316.75;5069411;28;20036;-77
2022/02/13 08:10:12;;;;;;;14.15;6.80;;;;;;;-0.69;81.85;101312.00;5066579;28;20052;-77
2022/02/13 08:12:37;;;;;;;14.40;7.50;;;;;;;-0.63;81.25;101301.50;5065068;28;20595;-76
2022/02/13 08:15:03;;;;;;;19.00;7.63;;;;;;;-0.62;81.14;101307.44;5049503;28;20039;-77
2022/02/13 08:17:29;;;;;;;16.02;7.35;;;;;;;-0.54;81.07;101304.53;5067599;28;20078;-77
2022/02/13 08:19:54;;;;;;;20.20;8.13;;;;;;;-0.46;80.30;101299.91;5065191;28;20040;-76
2022/02/13 08:22:20;;;;;;;17.13;7.93;;;;;;;-0.33;80.50;101297.59;5047551;28;20617;-76
2022/02/13 08:24:46;;;;;;;16.70;7.50;;;;;;;-0.25;80.39;101303.97;5045002;28;20036;-77
2022/02/13 08:27:12;;;;;;;16.77;7.60;;;;;;;-0.18;80.35;101293.50;5049523;28;20042;-76
2022/02/13 08:29:37;;;;;;;16.67;7.32;;;;;;;0.02;80.34;101303.53;5046999;28;20067;-77
2022/02/13 08:32:03;;;;;;;20.13;7.07;;;;;;;0.29;79.51;101300.50;5048333;28;20047;-76
2022/02/13 08:34:29;;;;;;;19.02;7.60;;;;;;;0.56;78.19;101293.97;5064503;28;20168;-77
2022/02/13 08:36:54;;;;;;;14.00;7.32;;;;;;;0.82;76.75;101293.56;5048129;28;20036;-76
2022/02/13 08:39:20;;;;;;;17.50;7.50;;;;;;;1.21;75.58;101298.25;5063981;28;20025;-76
2022/02/13 08:41:45;;;;;;;14.50;6.75;;;;;;;1.53;74.32;101296.50;5041924;28;20044;-76
2022/02/13 08:44:11;;;;;;;16.17;7.70;;;;;;;1.90;73.42;101283.34;5030840;28;20039;-76
2022/02/13 08:46:36;;;;;;;15.18;7.10;;;;;;;2.13;72.19;101287.16;5033498;28;20043;-76
2022/02/13 08:49:03;;;;;;;15.60;6.65;;;;;;;2.08;71.40;101289.97;5047500;28;20446;-76
2022/02/13 08:51:28;;;;;;;15.23;7.05;;;;;;;2.33;70.76;101284.22;5046947;28;20036;-76
2022/02/13 08:53:54;;;;;;;12.25;6.72;;;;;;;2.36;70.37;101287.53;5065254;28;20036;-77
2022/02/13 08:56:20;;;;;;;16.42;6.97;;;;;;;2.34;70.74;101287.63;5029459;28;20028;-77
2022/02/13 08:58:47;;;;;;;18.13;7.10;;;;;;;2.39;70.50;101284.78;5029480;28;20123;-76
2022/02/13 09:01:12;;;;;;;16.95;7.15;;;;;;;2.57;70.01;101276.00;5044349;28;20032;-77
2022/02/13 09:03:38;;;;;;;15.70;7.07;;;;;;;2.72;68.87;101279.38;5046850;28;20438;-77
2022/02/13 09:06:05;;;;;;;12.73;6.40;;;;;;;2.81;68.11;101272.88;5046922;28;20418;-77
2022/02/13 09:08:31;;;;;;;12.02;6.43;;;;;;;2.65;68.44;101272.97;5063637;28;20386;-77
2022/02/13 09:10:56;;;;;;;13.45;5.78;;;;;;;2.64;69.40;101263.69;5047084;28;20028;-77
2022/02/13 09:13:22;;;;;;;15.68;6.78;;;;;;;2.56;69.40;101261.56;5065012;28;20032;-76
2022/02/13 09:15:47;;;;;;;14.07;6.50;;;;;;;2.68;69.60;101268.50;5046421;28;20478;-77
2022/02/13 09:18:14;;;;;;;17.70;6.97;;;;;;;2.85;69.02;101266.66;5062967;28;20101;-77
2022/02/13 09:20:44;;;;;;;16.48;6.90;;;;;;;2.88;68.94;101257.03;5064049;28;20029;-76
2022/02/13 09:23:17;;;;;;;13.38;7.00;;;;;;;2.95;69.54;101267.72;5046984;28;20059;-77
2022/02/13 09:25:43;;;;;;;;;;;;;;;3.05;68.38;101260.28;5029330;28;20047;-76
2022/02/13 09:28:09;;;;;;;15.10;7.07;;;;;;;2.91;68.50;101258.59;5074532;28;19920;-77
2022/02/13 09:30:35;;;;;;;19.92;7.07;;;;;;;2.83;68.53;101250.56;5060194;28;20059;-76
2022/02/13 09:33:00;;;;;;;17.77;8.15;;;;;;;2.75;68.38;101251.03;5047015;28;20033;-77
2022/02/13 09:35:26;;;;;;;27.13;9.18;;;;;;;2.55;68.55;101244.56;5065928;28;20094;-76
2022/02/13 09:37:51;;;;;;;87.40;22.90;;;;;;;2.51;69.49;101246.47;5066113;28;20036;-77
2022/02/13 09:40:18;;;;;;;45.05;14.18;;;;;;;2.44;69.27;101241.81;5031796;28;20037;-76
2022/02/13 09:42:44;;;;;;;33.50;11.95;;;;;;;2.45;69.69;101243.44;5039676;28;20036;-76
2022/02/13 09:45:10;;;;;;;43.83;14.00;;;;;;;2.34;69.83;101229.56;5065439;28;20506;-76
2022/02/13 09:47:38;;;;;;;46.85;15.60;;;;;;;2.45;69.56;101234.06;5045178;28;20032;-75
2022/02/13 09:50:07;;;;;;;27.40;10.13;;;;;;;2.45;69.57;101228.94;5060314;28;20444;-76
2022/02/13 09:52:33;;;;;;;23.88;9.60;;;;;;;2.46;69.78;101222.88;5049843;28;20394;-77
2022/02/13 09:54:58;;;;;;;34.47;12.20;;;;;;;2.51;70.29;101228.56;5046457;28;20028;-76
2022/02/13 10:00:09;;;;;;;24.08;10.27;;;;;;;2.71;69.97;101227.34;5066144;28;20416;-76
2022/02/13 10:02:42;;;;;;;42.45;15.68;;;;;;;2.76;71.04;101229.63;5046797;28;20036;-76
2022/02/13 10:05:13;;;;;;;74.28;22.17;;;;;;;2.83;70.09;101230.88;5060978;28;20029;-76
2022/02/13 10:07:39;;;;;;;28.63;10.68;;;;;;;2.93;69.63;101226.81;5044882;28;20139;-76
2022/02/13 10:10:08;;;;;;;23.60;9.77;;;;;;;2.97;69.33;101224.06;5059714;28;20109;-77
2022/02/13 10:12:39;;;;;;;26.15;10.35;;;;;;;3.09;68.88;101213.88;5029892;28;20063;-77
2022/02/13 10:15:20;;;;;;;27.15;10.10;;;;;;;3.12;68.77;101212.84;5042165;28;20032;-76
2022/02/13 10:18:06;;;;;;;20.15;9.52;;;;;;;3.23;68.20;101209.63;5048953;28;20036;-77
2022/02/13 10:20:37;;;;;;;18.85;8.63;;;;;;;3.27;68.91;101195.69;5067892;28;20029;-77
2022/02/13 10:23:14;;;;;;;17.85;8.35;;;;;;;3.43;67.85;101191.22;5035205;28;20504;-77
2022/02/13 10:25:41;;;;;;;24.13;8.02;;;;;;;3.39;67.38;101184.66;5067198;28;20036;-77
2022/02/13 10:28:18;;;;;;;15.85;7.78;;;;;;;3.53;67.56;101176.03;5050473;28;20389;-76
2022/02/13 10:30:46;;;;;;;12.32;6.22;;;;;;;3.63;67.10;101166.78;5050871;28;20453;-76
2022/02/13 10:33:15;;;;;;;13.95;7.05;;;;;;;3.61;66.66;101178.91;5068878;28;20440;-77
2022/02/13 10:35:41;;;;;;;13.88;6.90;;;;;;;3.76;67.39;101176.25;5048509;28;20036;-77
2022/02/13 10:38:07;;;;;;;15.38;7.28;;;;;;;3.81;67.04;101161.38;5049952;28;20568;-77
2022/02/13 10:40:33;;;;;;;13.63;6.90;;;;;;;3.79;66.60;101156.34;5049418;28;20119;-77
2022/02/13 10:43:03;;;;;;;14.02;6.68;;;;;;;3.90;65.67;101153.88;5032954;28;20031;-77
2022/02/13 10:45:30;;;;;;;14.48;6.60;;;;;;;4.11;66.45;101148.22;5066025;28;20376;-77
2022/02/13 10:48:05;;;;;;;13.20;6.15;;;;;;;4.24;nan;101140.50;5049408;28;20063;-78
2022/02/13 10:50:35;;;;;;;15.20;5.60;;;;;;;4.15;65.23;101138.56;5048358;28;20424;-77
2022/02/13 10:53:02;;;;;;;12.85;6.07;;;;;;;4.19;65.36;101140.78;5049128;28;20040;-77
2022/02/13 10:55:29;;;;;;;14.18;5.50;;;;;;;4.48;64.62;101127.66;5067646;28;20503;-77
2022/02/13 10:57:55;;;;;;;11.57;5.80;;;;;;;4.51;63.22;101121.50;5064431;28;20040;-77
2022/02/13 11:00:21;;;;;;;15.23;5.88;;;;;;;4.67;62.66;101117.75;5034097;28;20613;-77
2022/02/13 11:02:49;;;;;;;14.25;5.32;;;;;;;4.71;62.23;101113.22;5048917;28;20025;-78
2022/02/13 11:05:15;;;;;;;13.30;5.22;;;;;;;4.77;62.73;101104.25;5049133;28;20040;-78
2022/02/13 11:07:43;;;;;;;12.68;5.03;;;;;;;4.88;62.35;101109.41;5050861;28;20454;-77
2022/02/13 11:10:12;;;;;;;16.30;5.47;;;;;;;5.05;62.20;101111.56;5065221;28;20064;-78
2022/02/13 11:12:38;;;;;;;14.15;5.43;;;;;;;5.13;61.15;101095.59;5069151;28;20533;-77
2022/02/13 11:15:33;;;;;;;12.50;5.25;;;;;;;5.15;62.02;101096.28;5066645;28;20457;-77
2022/02/13 11:18:08;;;;;;;8.10;4.65;;;;;;;5.41;60.09;101093.53;5037281;28;20489;-78